createdAt,value
2023-02-26T00:00:03.895Z,86.6
2023-02-26T00:01:03.935Z,86.7
2023-02-26T00:02:03.995Z,86.7
2023-02-26T00:03:04.054Z,86.5
2023-02-26T00:04:04.035Z,86.2
2023-02-26T00:05:03.954Z,86.2
2023-02-26T00:06:04.136Z,86.1
2023-02-26T00:07:03.969Z,85.9
2023-02-26T00:08:04.023Z,85.9
2023-02-26T00:09:04.164Z,85.9
2023-02-26T00:10:04.138Z,85.9
2023-02-26T00:11:04.517Z,85.8
2023-02-26T00:12:04.010Z,85.7
2023-02-26T00:13:04.427Z,85.6
2023-02-26T00:14:04.981Z,85.7
2023-02-26T00:15:04.043Z,85.7
2023-02-26T00:16:04.080Z,85.7
2023-02-26T00:17:04.294Z,85.7
2023-02-26T00:18:04.071Z,85.8
2023-02-26T00:19:04.311Z,85.7
2023-02-26T00:20:04.089Z,85.7
2023-02-26T00:21:04.108Z,85.8
2023-02-26T00:22:04.107Z,85.8
2023-02-26T00:23:04.132Z,85.8
2023-02-26T00:24:04.130Z,85.8
2023-02-26T00:25:04.142Z,85.6
2023-02-26T00:26:04.150Z,85.5
2023-02-26T00:27:04.168Z,85.4
2023-02-26T00:28:04.193Z,85.4
2023-02-26T00:29:04.274Z,85.3
2023-02-26T00:30:04.236Z,85.3
2023-02-26T00:31:04.369Z,85.1
2023-02-26T00:32:04.674Z,85.2
2023-02-26T00:33:04.247Z,85.0
2023-02-26T00:34:04.246Z,85.1
2023-02-26T00:35:04.276Z,85.0
2023-02-26T00:36:04.298Z,84.9
2023-02-26T00:37:04.294Z,84.7
2023-02-26T00:38:04.439Z,84.6
2023-02-26T00:39:04.330Z,84.7
2023-02-26T00:40:04.336Z,84.5
2023-02-26T00:41:04.517Z,84.3
2023-02-26T00:42:04.370Z,84.0
2023-02-26T00:43:04.381Z,83.7
2023-02-26T00:44:04.383Z,83.4
2023-02-26T00:45:04.411Z,83.3
2023-02-26T00:46:04.541Z,83.2
2023-02-26T00:47:04.411Z,83.1
2023-02-26T00:48:04.442Z,83.1
2023-02-26T00:49:04.436Z,82.7
2023-02-26T00:50:04.471Z,82.2
2023-02-26T00:51:04.476Z,81.7
2023-02-26T00:52:04.515Z,81.3
2023-02-26T00:53:04.519Z,81.1
2023-02-26T00:54:04.520Z,80.7
2023-02-26T00:55:04.523Z,80.5
2023-02-26T00:56:04.546Z,80.2
2023-02-26T00:57:04.542Z,80.0
2023-02-26T00:58:04.588Z,79.7
2023-02-26T00:59:04.573Z,79.7
2023-02-26T01:00:04.723Z,79.6
2023-02-26T01:01:04.600Z,79.4
2023-02-26T01:02:04.671Z,79.0
2023-02-26T01:03:04.628Z,79.0
2023-02-26T01:04:04.977Z,78.8
2023-02-26T01:05:04.647Z,78.7
2023-02-26T01:06:04.657Z,78.8
2023-02-26T01:07:04.655Z,78.9
2023-02-26T01:08:04.684Z,78.8
2023-02-26T01:09:04.699Z,79.0
2023-02-26T01:10:04.678Z,79.1
2023-02-26T01:11:04.699Z,79.2
2023-02-26T01:12:04.701Z,79.2
2023-02-26T01:13:04.714Z,79.3
2023-02-26T01:14:04.745Z,79.5
2023-02-26T01:15:04.746Z,79.5
2023-02-26T01:16:04.985Z,79.5
2023-02-26T01:17:04.802Z,79.5
2023-02-26T01:18:07.498Z,79.5
2023-02-26T01:19:04.801Z,79.3
2023-02-26T01:20:04.818Z,79.2
2023-02-26T01:21:05.039Z,79.1
2023-02-26T01:22:04.808Z,79.1
2023-02-26T01:23:04.849Z,78.8
2023-02-26T01:24:04.853Z,78.5
2023-02-26T01:25:05.071Z,78.2
2023-02-26T01:26:04.883Z,77.8
2023-02-26T01:27:04.883Z,77.6
2023-02-26T01:28:04.924Z,77.2
2023-02-26T01:29:04.894Z,77.1
2023-02-26T01:30:04.917Z,77.2
2023-02-26T01:31:05.409Z,77.2
2023-02-26T01:32:05.547Z,77.1
2023-02-26T01:33:04.927Z,76.9
2023-02-26T01:34:04.935Z,76.6
2023-02-26T01:35:04.978Z,76.7
2023-02-26T01:36:04.958Z,76.7
2023-02-26T01:37:04.977Z,76.8
2023-02-26T01:38:04.990Z,76.7
2023-02-26T01:39:05.014Z,76.8
2023-02-26T01:40:05.019Z,76.5
2023-02-26T01:41:05.018Z,76.6
2023-02-26T01:59:05.583Z,78.0
2023-02-26T02:00:05.347Z,78.1
2023-02-26T02:01:05.249Z,78.4
2023-02-26T02:02:05.253Z,78.4
2023-02-26T02:03:05.663Z,78.6
2023-02-26T02:20:05.791Z,80.5
2023-02-26T02:21:05.445Z,80.7
2023-02-26T02:22:05.466Z,80.8
2023-02-26T02:23:05.467Z,80.8
2023-02-26T02:24:05.492Z,80.8
2023-02-26T02:25:05.477Z,80.8
2023-02-26T02:26:05.808Z,80.8
2023-02-26T02:27:05.519Z,80.8
2023-02-26T02:28:05.805Z,80.8
2023-02-26T02:29:05.877Z,80.7
2023-02-26T02:30:05.543Z,80.7
2023-02-26T02:31:06.190Z,80.7
2023-02-26T02:32:06.260Z,80.6
2023-02-26T02:33:05.606Z,80.6
2023-02-26T02:34:06.378Z,80.7
2023-02-26T02:35:05.603Z,80.6
2023-02-26T02:36:05.624Z,80.7
2023-02-26T02:37:05.631Z,80.5
2023-02-26T02:38:05.668Z,80.5
2023-02-26T02:39:05.651Z,80.5
2023-02-26T02:40:05.661Z,80.5
2023-02-26T02:41:05.679Z,80.7
2023-02-26T02:42:05.679Z,80.9
2023-02-26T02:43:05.941Z,80.9
2023-02-26T02:44:05.723Z,80.8
2023-02-26T02:45:05.721Z,81.0
2023-02-26T02:46:05.971Z,81.0
2023-02-26T02:47:06.033Z,81.0
2023-02-26T02:48:13.130Z,80.9
2023-02-26T02:49:05.775Z,81.0
2023-02-26T02:50:05.773Z,80.9
2023-02-26T02:51:05.812Z,80.8
2023-02-26T02:52:05.806Z,80.6
2023-02-26T02:53:05.813Z,80.6
2023-02-26T02:54:05.813Z,80.5
2023-02-26T02:55:05.834Z,80.6
2023-02-26T02:56:05.960Z,80.6
2023-02-26T02:57:05.848Z,80.7
2023-02-26T02:58:05.903Z,80.7
2023-02-26T02:59:05.891Z,80.8
2023-02-26T03:00:05.896Z,80.9
2023-02-26T03:01:06.185Z,81.0
2023-02-26T03:02:06.041Z,81.0
2023-02-26T03:03:05.912Z,80.8
2023-02-26T03:04:05.934Z,80.8
2023-02-26T03:05:06.048Z,80.8
2023-02-26T03:06:06.077Z,80.8
2023-02-26T03:07:05.970Z,80.7
2023-02-26T03:08:05.991Z,80.5
2023-02-26T03:09:06.101Z,80.5
2023-02-26T03:10:06.010Z,80.6
2023-02-26T03:11:06.050Z,80.6
2023-02-26T03:12:06.036Z,80.6
2023-02-26T03:13:06.064Z,80.6
2023-02-26T03:14:06.074Z,80.5
2023-02-26T03:15:06.079Z,80.5
2023-02-26T03:16:06.229Z,80.8
2023-02-26T03:17:06.100Z,81.0
2023-02-26T03:18:06.119Z,81.1
2023-02-26T03:19:06.124Z,81.2
2023-02-26T03:20:06.131Z,81.2
2023-02-26T03:21:06.141Z,81.4
2023-02-26T03:22:06.153Z,81.4
2023-02-26T03:23:06.195Z,81.4
2023-02-26T03:24:06.174Z,81.4
2023-02-26T03:25:06.202Z,81.4
2023-02-26T03:26:06.212Z,81.4
2023-02-26T03:27:06.219Z,81.5
2023-02-26T03:28:06.235Z,81.7
2023-02-26T03:29:06.244Z,81.8
2023-02-26T03:30:06.287Z,81.8
2023-02-26T03:31:06.394Z,82.0
2023-02-26T03:32:06.664Z,82.1
2023-02-26T03:33:06.302Z,82.3
2023-02-26T03:34:06.323Z,82.3
2023-02-26T03:35:06.313Z,82.2
2023-02-26T03:36:06.325Z,82.2
2023-02-26T03:37:06.326Z,82.2
2023-02-26T03:38:06.340Z,82.2
2023-02-26T03:39:06.346Z,82.2
2023-02-26T03:40:06.375Z,82.2
2023-02-26T03:41:06.374Z,82.1
2023-02-26T03:42:06.375Z,82.2
2023-02-26T03:43:06.401Z,82.2
2023-02-26T03:44:06.387Z,82.2
2023-02-26T03:45:06.409Z,82.3
2023-02-26T03:46:06.634Z,82.5
2023-02-26T03:47:06.425Z,82.5
2023-02-26T03:48:06.444Z,82.4
2023-02-26T03:49:06.586Z,82.4
2023-02-26T03:50:06.464Z,82.5
2023-02-26T03:51:06.478Z,82.4
2023-02-26T03:52:06.483Z,82.5
2023-02-26T03:53:06.517Z,82.6
2023-02-26T03:54:06.507Z,82.5
2023-02-26T03:55:06.522Z,82.4
2023-02-26T03:56:06.551Z,82.4
2023-02-26T03:57:06.555Z,82.5
2023-02-26T03:58:06.555Z,82.4
2023-02-26T03:59:06.574Z,82.4
2023-02-26T04:00:06.577Z,82.4
2023-02-26T04:01:06.605Z,82.4
2023-02-26T04:02:06.953Z,82.4
2023-02-26T04:03:06.609Z,82.4
2023-02-26T04:04:06.883Z,82.2
2023-02-26T04:05:06.644Z,82.2
2023-02-26T04:06:06.657Z,82.2
2023-02-26T04:07:06.672Z,82.2
2023-02-26T04:08:06.684Z,82.1
2023-02-26T04:09:06.704Z,82.0
2023-02-26T04:10:06.712Z,82.0
2023-02-26T04:11:06.752Z,82.0
2023-02-26T04:12:06.737Z,82.0
2023-02-26T04:13:06.763Z,82.0
2023-02-26T04:14:06.766Z,81.9
2023-02-26T04:15:06.894Z,81.8
2023-02-26T04:16:06.791Z,81.8
2023-02-26T04:17:06.783Z,81.8
2023-02-26T04:18:06.798Z,81.9
2023-02-26T04:19:06.826Z,81.9
2023-02-26T04:20:06.843Z,81.8
2023-02-26T04:21:06.867Z,81.9
2023-02-26T04:22:06.857Z,81.7
2023-02-26T04:23:06.881Z,81.8
2023-02-26T04:24:06.875Z,81.7
2023-02-26T04:25:06.905Z,81.7
2023-02-26T04:26:06.911Z,81.7
2023-02-26T04:27:06.918Z,81.9
2023-02-26T04:28:06.933Z,81.9
2023-02-26T04:29:07.143Z,81.9
2023-02-26T04:30:06.946Z,81.9
2023-02-26T04:31:07.329Z,82.0
2023-02-26T04:32:07.508Z,82.0
2023-02-26T04:33:06.980Z,82.1
2023-02-26T04:34:07.012Z,82.1
2023-02-26T04:35:07.006Z,82.2
2023-02-26T04:36:07.052Z,82.5
2023-02-26T04:37:07.041Z,82.5
2023-02-26T04:38:07.056Z,82.6
2023-02-26T04:39:07.090Z,82.6
2023-02-26T04:40:14.747Z,82.6
2023-02-26T04:41:07.102Z,82.6
2023-02-26T04:42:07.115Z,82.5
2023-02-26T04:43:07.116Z,82.6
2023-02-26T04:44:07.131Z,82.7
2023-02-26T04:45:07.150Z,82.7
2023-02-26T04:46:07.408Z,82.5
2023-02-26T04:47:07.174Z,82.3
2023-02-26T04:48:07.163Z,82.3
2023-02-26T04:49:07.202Z,82.4
2023-02-26T04:50:07.485Z,82.3
2023-02-26T04:51:07.219Z,82.3
2023-02-26T04:52:07.367Z,82.2
2023-02-26T04:53:07.250Z,82.2
2023-02-26T04:54:07.260Z,82.1
2023-02-26T04:55:07.283Z,82.2
2023-02-26T04:56:07.303Z,82.4
2023-02-26T04:57:07.294Z,82.3
2023-02-26T04:58:07.307Z,82.4
2023-02-26T04:59:07.327Z,82.3
2023-02-26T05:00:07.355Z,82.5
2023-02-26T05:01:07.351Z,82.6
2023-02-26T05:02:07.371Z,82.8
2023-02-26T05:03:07.368Z,82.9
2023-02-26T05:04:07.710Z,83.0
2023-02-26T05:05:07.416Z,82.8
2023-02-26T05:06:07.451Z,82.9
2023-02-26T05:07:07.442Z,82.8
2023-02-26T05:08:07.436Z,82.8
2023-02-26T05:09:07.450Z,82.7
2023-02-26T05:10:07.493Z,82.7
2023-02-26T05:11:07.546Z,82.7
2023-02-26T05:12:07.498Z,82.8
2023-02-26T05:13:07.531Z,82.9
2023-02-26T05:14:07.534Z,82.8
2023-02-26T05:15:07.550Z,82.8
2023-02-26T05:16:07.755Z,82.9
2023-02-26T05:17:07.578Z,83.0
2023-02-26T05:18:07.615Z,83.1
2023-02-26T05:19:07.647Z,83.0
2023-02-26T05:20:07.616Z,83.1
2023-02-26T05:21:07.636Z,83.3
2023-02-26T05:22:07.633Z,83.4
2023-02-26T05:23:07.644Z,83.5
2023-02-26T05:24:07.670Z,83.5
2023-02-26T05:25:07.919Z,83.4
2023-02-26T05:26:07.687Z,83.3
2023-02-26T05:27:07.699Z,83.3
2023-02-26T05:28:07.717Z,83.3
2023-02-26T05:29:07.722Z,83.6
2023-02-26T05:30:07.725Z,83.7
2023-02-26T05:31:08.285Z,83.6
2023-02-26T05:32:07.862Z,83.7
2023-02-26T05:33:07.784Z,83.9
2023-02-26T05:34:07.795Z,83.8
2023-02-26T05:35:07.823Z,83.9
2023-02-26T05:36:07.831Z,84.3
2023-02-26T05:37:07.805Z,84.5
2023-02-26T05:38:07.850Z,84.6
2023-02-26T05:39:07.838Z,84.9
2023-02-26T05:40:07.847Z,85.0
2023-02-26T05:41:07.861Z,85.1
2023-02-26T05:42:07.876Z,85.0
2023-02-26T05:43:07.892Z,84.8
2023-02-26T05:44:08.084Z,84.8
2023-02-26T05:45:08.028Z,84.7
2023-02-26T05:46:07.949Z,84.6
2023-02-26T05:47:07.951Z,84.5
2023-02-26T05:48:07.987Z,84.4
2023-02-26T05:49:07.993Z,84.4
2023-02-26T05:50:08.320Z,84.6
2023-02-26T05:51:08.021Z,84.8
2023-02-26T05:52:08.051Z,84.8
2023-02-26T05:53:08.067Z,84.8
2023-02-26T05:54:08.069Z,84.7
2023-02-26T05:55:08.084Z,84.8
2023-02-26T05:56:08.094Z,84.6
2023-02-26T05:57:08.127Z,84.4
2023-02-26T05:58:08.118Z,84.3
2023-02-26T05:59:08.131Z,84.2
2023-02-26T06:00:08.182Z,84.2
2023-02-26T06:01:08.155Z,84.2
2023-02-26T06:02:08.535Z,84.1
2023-02-26T06:03:08.639Z,84.1
2023-02-26T06:04:08.198Z,84.1
2023-02-26T06:05:08.200Z,84.0
2023-02-26T06:06:08.222Z,84.0
2023-02-26T06:07:08.218Z,84.0
2023-02-26T06:08:08.235Z,84.2
2023-02-26T06:09:08.276Z,84.2
2023-02-26T06:10:08.284Z,84.0
2023-02-26T06:11:08.278Z,84.2
2023-02-26T06:12:08.290Z,84.2
2023-02-26T06:13:08.287Z,84.3
2023-02-26T06:14:08.315Z,84.2
2023-02-26T06:15:08.319Z,84.1
2023-02-26T06:16:08.513Z,84.1
2023-02-26T06:17:08.340Z,83.9
2023-02-26T06:18:08.357Z,84.0
2023-02-26T06:19:08.362Z,84.0
2023-02-26T06:20:08.370Z,84.1
2023-02-26T06:21:08.378Z,84.0
2023-02-26T06:22:08.406Z,83.9
2023-02-26T06:23:08.441Z,84.0
2023-02-26T06:24:08.441Z,83.9
2023-02-26T06:25:08.472Z,84.0
2023-02-26T06:26:08.462Z,84.0
2023-02-26T06:27:08.469Z,84.0
2023-02-26T06:28:08.483Z,83.9
2023-02-26T06:29:08.509Z,83.9
2023-02-26T06:30:08.526Z,83.9
2023-02-26T06:31:08.524Z,83.8
2023-02-26T06:32:09.057Z,83.7
2023-02-26T06:33:08.564Z,83.7
2023-02-26T06:34:08.557Z,83.7
2023-02-26T06:35:08.569Z,83.7
2023-02-26T06:36:08.609Z,83.6
2023-02-26T06:37:08.612Z,83.6
2023-02-26T06:38:08.611Z,83.4
2023-02-26T06:39:08.616Z,83.4
2023-02-26T06:40:08.632Z,83.4
2023-02-26T06:41:08.636Z,83.3
2023-02-26T06:42:08.650Z,83.3
2023-02-26T06:43:08.669Z,83.1
2023-02-26T06:44:08.682Z,83.0
2023-02-26T06:45:08.691Z,82.9
2023-02-26T06:46:08.926Z,82.7
2023-02-26T06:47:08.731Z,82.5
2023-02-26T06:48:08.780Z,82.2
2023-02-26T06:49:08.756Z,82.1
2023-02-26T06:50:08.763Z,82.0
2023-02-26T06:51:08.782Z,81.8
2023-02-26T06:52:08.788Z,81.7
2023-02-26T06:53:08.810Z,81.5
2023-02-26T06:54:08.806Z,81.2
2023-02-26T06:55:08.819Z,81.0
2023-02-26T06:56:08.838Z,80.9
2023-02-26T06:57:08.853Z,80.7
2023-02-26T06:58:08.872Z,80.4
2023-02-26T06:59:08.876Z,80.2
2023-02-26T07:00:09.055Z,80.0
2023-02-26T07:01:09.047Z,79.8
2023-02-26T07:02:09.056Z,79.9
2023-02-26T07:03:08.913Z,79.6
2023-02-26T07:04:09.190Z,79.4
2023-02-26T07:05:08.972Z,79.2
2023-02-26T07:06:28.289Z,79.2
2023-02-26T07:07:08.968Z,79.2
2023-02-26T07:08:08.999Z,79.2
2023-02-26T07:09:09.095Z,79.2
2023-02-26T07:10:09.016Z,79.1
2023-02-26T07:11:09.150Z,79.0
2023-02-26T07:12:09.063Z,78.8
2023-02-26T07:13:09.020Z,78.9
2023-02-26T07:14:09.058Z,78.6
2023-02-26T07:15:09.097Z,78.3
2023-02-26T07:16:09.073Z,78.1
2023-02-26T07:17:09.422Z,78.0
2023-02-26T07:18:09.103Z,77.9
2023-02-26T07:19:09.117Z,78.0
2023-02-26T07:20:09.101Z,77.7
2023-02-26T07:21:09.203Z,78.2
2023-02-26T07:22:09.198Z,78.4
2023-02-26T07:23:09.140Z,78.0
2023-02-26T07:24:09.173Z,77.7
2023-02-26T07:25:09.167Z,77.7
2023-02-26T07:26:09.261Z,77.9
2023-02-26T07:27:09.388Z,78.0
2023-02-26T07:28:09.355Z,78.1
2023-02-26T07:29:09.225Z,78.3
2023-02-26T07:30:09.293Z,78.7
2023-02-26T07:31:09.692Z,78.8
2023-02-26T07:32:09.547Z,78.6
2023-02-26T07:33:09.280Z,78.7
2023-02-26T07:34:09.285Z,78.8
2023-02-26T07:35:09.317Z,79.0
2023-02-26T07:36:09.321Z,79.0
2023-02-26T07:37:09.344Z,79.1
2023-02-26T07:38:09.365Z,79.4
2023-02-26T07:39:09.378Z,79.5
2023-02-26T07:40:09.388Z,79.5
2023-02-26T07:41:09.384Z,79.6
2023-02-26T07:42:09.422Z,79.4
2023-02-26T07:43:09.406Z,79.3
2023-02-26T07:44:09.423Z,79.3
2023-02-26T07:45:09.424Z,79.4
2023-02-26T07:46:09.667Z,79.5
2023-02-26T07:47:09.475Z,79.6
2023-02-26T07:48:09.478Z,79.8
2023-02-26T07:49:09.468Z,79.6
2023-02-26T07:50:09.485Z,79.6
2023-02-26T07:51:09.481Z,79.4
2023-02-26T07:52:09.492Z,79.5
2023-02-26T07:53:09.492Z,79.4
2023-02-26T07:54:09.505Z,79.4
2023-02-26T07:55:09.531Z,79.4
2023-02-26T07:56:09.512Z,79.6
2023-02-26T07:57:09.528Z,79.7
2023-02-26T07:58:09.526Z,79.5
2023-02-26T07:59:09.544Z,79.3
2023-02-26T08:00:10.129Z,79.2
2023-02-26T08:01:09.679Z,79.1
2023-02-26T08:02:09.555Z,79.0
2023-02-26T08:03:09.575Z,79.0
2023-02-26T08:04:09.780Z,79.0
2023-02-26T08:05:09.582Z,79.1
2023-02-26T08:06:09.772Z,79.0
2023-02-26T08:07:09.595Z,78.8
2023-02-26T08:08:09.602Z,78.8
2023-02-26T08:09:09.612Z,78.8
2023-02-26T08:10:09.619Z,78.9
2023-02-26T08:11:09.616Z,78.8
2023-02-26T08:12:09.629Z,78.9
2023-02-26T08:13:09.626Z,78.8
2023-02-26T08:14:09.635Z,78.8
2023-02-26T08:15:09.662Z,78.6
2023-02-26T08:16:09.870Z,78.5
2023-02-26T08:17:09.674Z,78.4
2023-02-26T08:18:09.662Z,78.3
2023-02-26T08:19:09.684Z,78.3
2023-02-26T08:20:09.698Z,78.3
2023-02-26T08:21:09.686Z,78.1
2023-02-26T08:22:09.693Z,77.9
2023-02-26T08:23:09.706Z,77.8
2023-02-26T08:24:09.713Z,77.9
2023-02-26T08:25:09.715Z,77.8
2023-02-26T08:26:09.724Z,77.8
2023-02-26T08:27:10.311Z,77.5
2023-02-26T08:28:09.780Z,77.1
2023-02-26T08:29:09.815Z,76.7
2023-02-26T08:30:09.754Z,76.7
2023-02-26T08:31:10.132Z,76.5
2023-02-26T08:32:10.283Z,76.5
2023-02-26T08:33:09.854Z,76.6
2023-02-26T08:34:09.819Z,76.5
2023-02-26T08:35:09.854Z,76.5
2023-02-26T08:36:09.850Z,76.3
2023-02-26T08:37:09.840Z,76.1
2023-02-26T08:38:09.857Z,75.3
2023-02-26T08:39:09.952Z,75.2
2023-02-26T08:40:09.875Z,75.2
2023-02-26T08:41:09.884Z,74.7
2023-02-26T08:42:09.922Z,74.9
2023-02-26T08:43:09.916Z,74.4
2023-02-26T08:44:09.902Z,74.2
2023-02-26T08:45:09.890Z,73.8
2023-02-26T08:46:10.034Z,73.4
2023-02-26T08:47:09.892Z,73.5
2023-02-26T08:48:11.096Z,73.6
2023-02-26T08:49:09.919Z,73.8
2023-02-26T08:50:09.949Z,73.9
2023-02-26T08:51:09.965Z,73.6
2023-02-26T08:52:09.953Z,73.0
2023-02-26T08:53:09.981Z,72.9
2023-02-26T08:54:09.990Z,72.5
2023-02-26T08:55:09.954Z,72.5
2023-02-26T08:56:09.963Z,72.5
2023-02-26T08:57:09.955Z,72.6
2023-02-26T08:58:09.971Z,72.7
2023-02-26T08:59:09.992Z,72.6
2023-02-26T09:00:09.989Z,72.0
2023-02-26T09:01:10.000Z,71.9
2023-02-26T09:02:10.380Z,71.9
2023-02-26T09:03:10.208Z,71.5
2023-02-26T09:04:09.979Z,71.7
2023-02-26T09:05:10.009Z,70.7
2023-02-26T09:06:10.044Z,70.5
2023-02-26T09:07:10.019Z,69.9
2023-02-26T09:08:09.998Z,69.7
2023-02-26T09:09:10.037Z,69.9
2023-02-26T09:10:10.005Z,69.8
2023-02-26T09:11:10.028Z,69.1
2023-02-26T09:12:10.038Z,68.8
2023-02-26T09:13:10.032Z,68.8
2023-02-26T09:14:10.034Z,68.4
2023-02-26T09:15:10.095Z,68.5
2023-02-26T09:16:10.226Z,68.1
2023-02-26T09:17:10.075Z,67.4
2023-02-26T09:18:10.076Z,67.0
2023-02-26T09:19:10.081Z,67.0
2023-02-26T09:20:10.107Z,66.7
2023-02-26T09:21:10.124Z,66.2
2023-02-26T09:22:10.155Z,66.2
2023-02-26T09:23:10.122Z,66.1
2023-02-26T09:24:10.149Z,66.4
2023-02-26T09:25:10.164Z,66.6
2023-02-26T09:26:10.156Z,66.3
2023-02-26T09:27:10.161Z,65.9
2023-02-26T09:28:10.398Z,65.3
2023-02-26T09:29:10.167Z,65.2
2023-02-26T09:30:10.197Z,65.0
2023-02-26T09:31:10.474Z,64.5
2023-02-26T09:32:10.628Z,64.1
2023-02-26T09:33:10.206Z,64.3
2023-02-26T09:34:11.771Z,64.6
2023-02-26T09:35:10.216Z,64.7
2023-02-26T09:36:10.215Z,64.4
2023-02-26T09:37:10.212Z,64.4
2023-02-26T09:38:10.230Z,64.0
2023-02-26T09:39:10.230Z,62.6
2023-02-26T09:40:10.240Z,62.8
2023-02-26T09:41:10.281Z,62.7
2023-02-26T09:42:10.256Z,62.3
2023-02-26T09:43:10.256Z,61.9
2023-02-26T09:44:10.265Z,61.8
2023-02-26T09:45:10.286Z,61.2
2023-02-26T09:46:10.539Z,60.2
2023-02-26T09:47:10.274Z,60.0
2023-02-26T09:48:10.283Z,59.9
2023-02-26T09:49:10.291Z,59.5
2023-02-26T09:50:10.299Z,60.0
2023-02-26T09:51:10.296Z,59.5
2023-02-26T09:52:10.308Z,58.1
2023-02-26T09:53:10.317Z,57.5
2023-02-26T09:54:10.323Z,57.6
2023-02-26T09:55:10.329Z,57.6
2023-02-26T09:56:10.340Z,57.6
2023-02-26T09:57:10.380Z,57.6
2023-02-26T09:58:10.355Z,57.4
2023-02-26T09:59:10.375Z,57.5
2023-02-26T10:00:10.381Z,57.7
2023-02-26T10:01:10.388Z,57.9
2023-02-26T10:02:10.556Z,58.0
2023-02-26T10:03:10.536Z,57.9
2023-02-26T10:04:10.662Z,57.8
2023-02-26T10:05:10.420Z,58.1
2023-02-26T10:06:10.425Z,58.2
2023-02-26T10:07:10.452Z,58.0
2023-02-26T10:08:10.440Z,58.2
2023-02-26T10:09:10.456Z,58.5
2023-02-26T10:10:10.464Z,58.7
2023-02-26T10:11:10.476Z,58.3
2023-02-26T10:12:10.486Z,58.2
2023-02-26T10:13:10.477Z,58.2
2023-02-26T10:14:10.498Z,58.2
2023-02-26T10:15:10.508Z,58.0
2023-02-26T10:16:12.940Z,58.1
2023-02-26T10:17:10.495Z,57.9
2023-02-26T10:18:10.540Z,57.7
2023-02-26T10:19:10.510Z,57.8
2023-02-26T10:20:10.547Z,57.6
2023-02-26T10:21:10.536Z,57.6
2023-02-26T10:22:10.524Z,57.1
2023-02-26T10:23:10.539Z,56.8
2023-02-26T10:24:10.543Z,56.7
2023-02-26T10:25:10.555Z,56.5
2023-02-26T10:26:10.567Z,56.5
2023-02-26T10:27:10.584Z,56.3
2023-02-26T10:28:10.583Z,55.7
2023-02-26T10:29:10.605Z,55.5
2023-02-26T10:30:10.603Z,56.0
2023-02-26T10:31:10.919Z,59.5
2023-02-26T10:32:11.059Z,56.0
2023-02-26T10:33:10.618Z,54.6
2023-02-26T10:34:10.634Z,54.2
2023-02-26T10:35:10.625Z,53.9
2023-02-26T10:36:10.640Z,53.7
2023-02-26T10:37:10.648Z,53.7
2023-02-26T10:38:10.667Z,53.8
2023-02-26T10:39:10.669Z,53.9
2023-02-26T10:40:10.679Z,54.3
2023-02-26T10:41:10.677Z,54.1
2023-02-26T10:42:10.685Z,54.4
2023-02-26T10:43:10.692Z,54.1
2023-02-26T10:44:10.697Z,54.1
2023-02-26T10:45:10.721Z,54.4
2023-02-26T10:46:10.944Z,54.8
2023-02-26T10:47:10.700Z,54.8
2023-02-26T10:48:10.732Z,55.4
2023-02-26T10:49:10.746Z,55.7
2023-02-26T10:50:10.726Z,55.7
2023-02-26T10:51:10.755Z,56.1
2023-02-26T10:52:10.759Z,56.2
2023-02-26T10:53:10.759Z,55.9
2023-02-26T10:54:10.755Z,55.7
2023-02-26T10:55:10.777Z,56.1
2023-02-26T10:56:10.775Z,55.8
2023-02-26T10:57:10.786Z,55.5
2023-02-26T10:58:10.776Z,55.5
2023-02-26T10:59:10.783Z,55.8
2023-02-26T11:00:10.795Z,55.8
2023-02-26T11:01:10.911Z,55.7
2023-02-26T11:02:10.890Z,55.6
2023-02-26T11:03:10.828Z,55.7
2023-02-26T11:04:10.846Z,55.6
2023-02-26T11:05:10.843Z,55.4
2023-02-26T11:06:10.847Z,55.3
2023-02-26T11:07:10.860Z,54.5
2023-02-26T11:08:10.878Z,54.7
2023-02-26T11:09:10.874Z,54.7
2023-02-26T11:10:10.876Z,55.1
2023-02-26T11:11:10.880Z,55.3
2023-02-26T11:12:10.893Z,55.5
2023-02-26T11:13:10.908Z,55.3
2023-02-26T11:14:10.913Z,55.2
2023-02-26T11:15:10.908Z,55.5
2023-02-26T11:16:11.044Z,55.8
2023-02-26T11:17:10.923Z,56.1
2023-02-26T11:18:10.965Z,56.6
2023-02-26T11:19:10.930Z,56.8
2023-02-26T11:20:10.949Z,56.8
2023-02-26T11:21:11.179Z,57.4
2023-02-26T11:22:10.954Z,57.4
2023-02-26T11:23:10.956Z,57.1
2023-02-26T11:24:10.955Z,57.4
2023-02-26T11:25:10.958Z,57.4
2023-02-26T11:26:10.973Z,57.6
2023-02-26T11:27:10.977Z,57.8
2023-02-26T11:28:11.012Z,57.3
2023-02-26T11:29:10.996Z,57.1
2023-02-26T11:30:11.002Z,57.3
2023-02-26T11:31:11.607Z,57.3
2023-02-26T11:32:11.352Z,56.5
2023-02-26T11:33:11.030Z,55.2
2023-02-26T11:34:11.078Z,55.0
2023-02-26T11:35:11.049Z,55.2
2023-02-26T11:36:11.051Z,55.3
2023-02-26T11:37:11.073Z,55.6
2023-02-26T11:38:11.216Z,56.2
2023-02-26T11:39:11.070Z,56.2
2023-02-26T11:40:11.090Z,55.9
2023-02-26T11:41:11.080Z,55.9
2023-02-26T11:42:11.085Z,56.3
2023-02-26T11:43:11.097Z,56.4
2023-02-26T11:44:11.102Z,56.3
2023-02-26T11:45:11.104Z,56.5
2023-02-26T11:46:11.341Z,56.6
2023-02-26T11:47:11.125Z,56.5
2023-02-26T11:48:11.131Z,57.0
2023-02-26T11:49:11.123Z,57.1
2023-02-26T11:50:11.130Z,56.2
2023-02-26T11:51:11.150Z,56.5
2023-02-26T11:52:11.173Z,56.2
2023-02-26T11:53:11.162Z,55.8
2023-02-26T11:54:11.170Z,56.2
2023-02-26T11:55:11.176Z,56.4
2023-02-26T11:56:11.181Z,55.2
2023-02-26T11:57:11.176Z,55.4
2023-02-26T11:58:11.185Z,55.9
2023-02-26T11:59:11.195Z,55.8
2023-02-26T12:00:11.376Z,55.8
2023-02-26T12:01:11.217Z,56.2
2023-02-26T12:02:11.225Z,56.4
2023-02-26T12:03:11.217Z,56.3
2023-02-26T12:04:11.231Z,56.9
2023-02-26T12:05:11.226Z,57.3
2023-02-26T12:06:11.236Z,57.3
2023-02-26T12:07:11.241Z,57.6
2023-02-26T12:08:11.240Z,57.7
2023-02-26T12:09:11.253Z,57.4
2023-02-26T12:10:11.268Z,57.5
2023-02-26T12:11:13.882Z,57.3
2023-02-26T12:12:11.279Z,57.6
2023-02-26T12:13:11.490Z,58.2
2023-02-26T12:14:11.492Z,58.3
2023-02-26T12:15:11.600Z,58.7
2023-02-26T12:16:11.503Z,59.0
2023-02-26T12:17:11.348Z,59.0
2023-02-26T12:18:11.657Z,59.6
2023-02-26T12:19:11.339Z,59.6
2023-02-26T12:20:11.559Z,58.7
2023-02-26T12:21:11.356Z,58.5
2023-02-26T12:22:11.365Z,58.0
2023-02-26T12:23:11.371Z,57.8
2023-02-26T12:24:11.430Z,57.8
2023-02-26T12:25:11.385Z,58.1
2023-02-26T12:26:11.423Z,58.1
2023-02-26T12:27:11.439Z,58.0
2023-02-26T12:28:11.392Z,57.8
2023-02-26T12:29:11.462Z,57.7
2023-02-26T12:30:11.662Z,57.7
2023-02-26T12:31:11.697Z,58.1
2023-02-26T12:32:11.798Z,58.2
2023-02-26T12:33:11.464Z,57.6
2023-02-26T12:34:11.455Z,57.4
2023-02-26T12:35:11.474Z,57.7
2023-02-26T12:36:11.460Z,57.5
2023-02-26T12:37:11.490Z,57.0
2023-02-26T12:38:15.476Z,57.1
2023-02-26T12:39:11.525Z,57.1
2023-02-26T12:40:11.619Z,57.1
2023-02-26T12:41:11.526Z,57.2
2023-02-26T12:42:11.538Z,57.3
2023-02-26T12:43:11.512Z,57.5
2023-02-26T12:44:11.537Z,57.3
2023-02-26T12:45:11.543Z,57.3
2023-02-26T12:46:11.875Z,57.4
2023-02-26T12:47:11.552Z,57.3
2023-02-26T12:48:11.595Z,57.5
2023-02-26T12:49:11.574Z,57.8
2023-02-26T12:50:11.584Z,57.8
2023-02-26T12:51:11.698Z,57.5
2023-02-26T12:52:11.570Z,56.0
2023-02-26T12:53:11.572Z,56.0
2023-02-26T12:54:11.564Z,54.4
2023-02-26T12:55:11.597Z,54.5
2023-02-26T12:56:11.603Z,54.5
2023-02-26T12:57:11.583Z,54.7
2023-02-26T12:58:11.591Z,54.2
2023-02-26T12:59:11.589Z,54.3
2023-02-26T13:00:11.626Z,53.5
2023-02-26T13:01:11.811Z,54.0
2023-02-26T13:02:11.607Z,53.6
2023-02-26T13:03:11.644Z,53.9
2023-02-26T13:04:11.793Z,54.0
2023-02-26T13:05:11.638Z,54.1
2023-02-26T13:06:11.645Z,53.9
2023-02-26T13:07:11.656Z,53.9
2023-02-26T13:08:11.686Z,53.7
2023-02-26T13:09:11.663Z,54.0
2023-02-26T13:10:11.685Z,54.0
2023-02-26T13:11:11.710Z,53.9
2023-02-26T13:12:11.690Z,54.1
2023-02-26T13:13:11.720Z,53.6
2023-02-26T13:14:11.739Z,53.4
2023-02-26T13:15:11.721Z,53.4
2023-02-26T13:16:11.798Z,53.8
2023-02-26T13:17:11.748Z,54.0
2023-02-26T13:18:11.835Z,53.7
2023-02-26T13:19:11.764Z,53.5
2023-02-26T13:20:11.800Z,53.4
2023-02-26T13:21:11.769Z,53.5
2023-02-26T13:22:11.770Z,54.0
2023-02-26T13:23:11.790Z,54.4
2023-02-26T13:24:11.808Z,52.9
2023-02-26T13:25:11.819Z,52.8
2023-02-26T13:26:11.811Z,53.4
2023-02-26T13:27:11.805Z,53.8
2023-02-26T13:28:11.813Z,54.3
2023-02-26T13:29:11.856Z,54.7
2023-02-26T13:30:11.820Z,54.7
2023-02-26T13:31:12.209Z,54.9
2023-02-26T13:32:12.313Z,54.8
2023-02-26T13:33:11.848Z,54.8
2023-02-26T13:34:11.845Z,54.6
2023-02-26T13:35:11.855Z,54.3
2023-02-26T13:36:11.860Z,54.6
2023-02-26T13:37:11.887Z,54.7
2023-02-26T13:38:11.882Z,54.7
2023-02-26T13:39:11.891Z,54.5
2023-02-26T13:40:11.902Z,54.3
2023-02-26T13:41:11.921Z,54.3
2023-02-26T13:42:11.902Z,54.6
2023-02-26T13:43:11.919Z,54.7
2023-02-26T13:44:11.953Z,54.8
2023-02-26T13:45:11.917Z,54.9
2023-02-26T13:46:12.097Z,54.8
2023-02-26T13:47:11.938Z,55.3
2023-02-26T13:48:12.126Z,55.7
2023-02-26T13:49:11.959Z,55.6
2023-02-26T13:50:11.969Z,56.0
2023-02-26T13:51:11.980Z,56.0